sensor_id;sensor_type;location;lat;lon;timestamp;temperature;humidity
22071;DHT22;11200;51.488;6.668;2023-03-15T04:50:57;2.90;99.90
22071;DHT22;11200;51.488;6.668;2023-03-15T04:53:23;2.90;99.90
22071;DHT22;11200;51.488;6.668;2023-03-15T04:55:49;2.80;99.90
22071;DHT22;11200;51.488;6.668;2023-03-15T04:58:15;2.80;99.90
22071;DHT22;11200;51.488;6.668;2023-03-15T05:00:41;2.80;99.90
22071;DHT22;11200;51.488;6.668;2023-03-15T05:03:06;2.90;99.90
22071;DHT22;11200;51.488;6.668;2023-03-15T05:05:32;2.80;99.90
22071;DHT22;11200;51.488;6.668;2023-03-15T05:07:58;2.80;99.90
22071;DHT22;11200;51.488;6.668;2023-03-15T05:10:24;2.80;99.90
22071;DHT22;11200;51.488;6.668;2023-03-15T05:12:53;2.80;99.90
22071;DHT22;11200;51.488;6.668;2023-03-15T05:15:19;2.70;99.90
22071;DHT22;11200;51.488;6.668;2023-03-15T05:17:45;2.80;99.90
22071;DHT22;11200;51.488;6.668;2023-03-15T05:20:12;2.80;99.90
22071;DHT22;11200;51.488;6.668;2023-03-15T05:22:39;2.80;99.90
22071;DHT22;11200;51.488;6.668;2023-03-15T05:25:06;2.80;99.90
22071;DHT22;11200;51.488;6.668;2023-03-15T05:27:32;2.80;99.90
22071;DHT22;11200;51.488;6.668;2023-03-15T05:29:59;2.70;99.90
22071;DHT22;11200;51.488;6.668;2023-03-15T05:32:27;2.70;99.90
22071;DHT22;11200;51.488;6.668;2023-03-15T05:34:53;2.70;99.90
22071;DHT22;11200;51.488;6.668;2023-03-15T05:37:21;2.80;99.90
22071;DHT22;11200;51.488;6.668;2023-03-15T05:39:47;2.80;99.90
22071;DHT22;11200;51.488;6.668;2023-03-15T05:42:12;2.70;99.90
22071;DHT22;11200;51.488;6.668;2023-03-15T05:44:38;2.70;99.90
22071;DHT22;11200;51.488;6.668;2023-03-15T05:47:04;2.70;99.90
22071;DHT22;11200;51.488;6.668;2023-03-15T05:49:29;2.80;99.90
22071;DHT22;11200;51.488;6.668;2023-03-15T05:51:55;2.70;99.90
22071;DHT22;11200;51.488;6.668;2023-03-15T05:54:21;2.70;99.90
22071;DHT22;11200;51.488;6.668;2023-03-15T05:56:46;2.80;99.90
22071;DHT22;11200;51.488;6.668;2023-03-15T05:59:12;2.80;99.90
22071;DHT22;11200;51.488;6.668;2023-03-15T06:01:37;2.80;99.90
22071;DHT22;11200;51.488;6.668;2023-03-15T06:04:03;2.80;99.90
22071;DHT22;11200;51.488;6.668;2023-03-15T06:06:29;2.80;99.90
22071;DHT22;11200;51.488;6.668;2023-03-15T06:08:55;2.80;99.90
22071;DHT22;11200;51.488;6.668;2023-03-15T06:11:20;2.70;99.90
22071;DHT22;11200;51.488;6.668;2023-03-15T06:13:46;2.70;99.90
22071;DHT22;11200;51.488;6.668;2023-03-15T06:16:11;2.70;99.90
22071;DHT22;11200;51.488;6.668;2023-03-15T06:18:37;2.90;99.90
22071;DHT22;11200;51.488;6.668;2023-03-15T06:21:03;2.80;99.90
22071;DHT22;11200;51.488;6.668;2023-03-15T06:23:28;2.80;99.90
22071;DHT22;11200;51.488;6.668;2023-03-15T06:25:54;2.80;99.90
22071;DHT22;11200;51.488;6.668;2023-03-15T06:28:19;2.90;99.90
22071;DHT22;11200;51.488;6.668;2023-03-15T06:30:45;2.80;99.90
22071;DHT22;11200;51.488;6.668;2023-03-15T06:33:11;3.10;99.90
22071;DHT22;11200;51.488;6.668;2023-03-15T06:35:36;2.90;99.90
22071;DHT22;11200;51.488;6.668;2023-03-15T06:38:02;2.90;99.90
22071;DHT22;11200;51.488;6.668;2023-03-15T06:40:28;2.90;99.90
22071;DHT22;11200;51.488;6.668;2023-03-15T06:42:53;2.90;99.90
22071;DHT22;11200;51.488;6.668;2023-03-15T06:45:19;2.90;99.90
22071;DHT22;11200;51.488;6.668;2023-03-15T06:47:44;2.90;99.90
22071;DHT22;11200;51.488;6.668;2023-03-15T06:50:10;2.90;99.90
22071;DHT22;11200;51.488;6.668;2023-03-15T06:52:36;2.90;99.90
22071;DHT22;11200;51.488;6.668;2023-03-15T06:55:03;3.10;99.90
22071;DHT22;11200;51.488;6.668;2023-03-15T06:57:30;2.90;99.90
22071;DHT22;11200;51.488;6.668;2023-03-15T06:59:55;3.00;99.90
22071;DHT22;11200;51.488;6.668;2023-03-15T07:02:21;3.00;99.90
22071;DHT22;11200;51.488;6.668;2023-03-15T07:04:47;3.30;99.90
22071;DHT22;11200;51.488;6.668;2023-03-15T07:07:13;3.00;99.90
22071;DHT22;11200;51.488;6.668;2023-03-15T07:09:39;3.20;99.90
22071;DHT22;11200;51.488;6.668;2023-03-15T07:12:06;3.10;99.90
22071;DHT22;11200;51.488;6.668;2023-03-15T07:14:33;3.10;99.90
22071;DHT22;11200;51.488;6.668;2023-03-15T07:16:58;3.10;99.90
22071;DHT22;11200;51.488;6.668;2023-03-15T07:19:24;3.20;99.90
22071;DHT22;11200;51.488;6.668;2023-03-15T07:21:50;3.20;99.90
22071;DHT22;11200;51.488;6.668;2023-03-15T07:24:16;3.20;99.90
22071;DHT22;11200;51.488;6.668;2023-03-15T07:26:42;3.20;99.90
22071;DHT22;11200;51.488;6.668;2023-03-15T07:29:07;3.70;99.90
22071;DHT22;11200;51.488;6.668;2023-03-15T07:31:33;3.30;99.90
22071;DHT22;11200;51.488;6.668;2023-03-15T07:33:58;3.40;99.90
22071;DHT22;11200;51.488;6.668;2023-03-15T07:36:24;3.40;99.90
22071;DHT22;11200;51.488;6.668;2023-03-15T07:38:50;3.50;99.90
22071;DHT22;11200;51.488;6.668;2023-03-15T07:41:16;3.50;99.90
22071;DHT22;11200;51.488;6.668;2023-03-15T07:43:42;3.50;99.90
22071;DHT22;11200;51.488;6.668;2023-03-15T07:46:07;3.50;99.90
22071;DHT22;11200;51.488;6.668;2023-03-15T07:48:33;3.50;99.90
22071;DHT22;11200;51.488;6.668;2023-03-15T07:50:59;3.60;99.90
22071;DHT22;11200;51.488;6.668;2023-03-15T07:53:24;3.70;99.90
22071;DHT22;11200;51.488;6.668;2023-03-15T07:55:50;3.60;99.90
22071;DHT22;11200;51.488;6.668;2023-03-15T07:58:16;3.70;99.90
22071;DHT22;11200;51.488;6.668;2023-03-15T08:00:42;3.70;99.90
22071;DHT22;11200;51.488;6.668;2023-03-15T08:03:07;3.80;99.90
22071;DHT22;11200;51.488;6.668;2023-03-15T08:05:34;4.30;99.90
22071;DHT22;11200;51.488;6.668;2023-03-15T08:08:00;4.60;99.90
22071;DHT22;11200;51.488;6.668;2023-03-15T08:10:26;4.40;99.90
22071;DHT22;11200;51.488;6.668;2023-03-15T08:12:51;4.10;99.90
22071;DHT22;11200;51.488;6.668;2023-03-15T08:15:19;4.00;99.90
22071;DHT22;11200;51.488;6.668;2023-03-15T08:17:47;4.00;99.90
22071;DHT22;11200;51.488;6.668;2023-03-15T08:20:14;4.00;99.90
22071;DHT22;11200;51.488;6.668;2023-03-15T08:22:43;4.20;99.90
22071;DHT22;11200;51.488;6.668;2023-03-15T08:25:11;4.40;99.90
22071;DHT22;11200;51.488;6.668;2023-03-15T08:27:37;4.30;99.90
22071;DHT22;11200;51.488;6.668;2023-03-15T08:30:04;4.60;99.90
22071;DHT22;11200;51.488;6.668;2023-03-15T08:32:31;4.40;99.90
22071;DHT22;11200;51.488;6.668;2023-03-15T08:34:56;4.60;99.90
22071;DHT22;11200;51.488;6.668;2023-03-15T08:37:22;4.70;99.90
22071;DHT22;11200;51.488;6.668;2023-03-15T08:39:48;4.70;99.90
22071;DHT22;11200;51.488;6.668;2023-03-15T08:42:14;4.90;99.90
22071;DHT22;11200;51.488;6.668;2023-03-15T08:44:39;5.10;99.90
22071;DHT22;11200;51.488;6.668;2023-03-15T08:47:05;5.00;99.90
22071;DHT22;11200;51.488;6.668;2023-03-15T08:49:31;5.10;99.90
22071;DHT22;11200;51.488;6.668;2023-03-15T08:51:57;5.20;99.90
22071;DHT22;11200;51.488;6.668;2023-03-15T08:54:22;5.50;99.90
22071;DHT22;11200;51.488;6.668;2023-03-15T08:56:48;5.70;99.90
22071;DHT22;11200;51.488;6.668;2023-03-15T08:59:14;5.90;99.90
22071;DHT22;11200;51.488;6.668;2023-03-15T09:01:39;6.20;99.90
22071;DHT22;11200;51.488;6.668;2023-03-15T09:04:05;6.40;99.90
22071;DHT22;11200;51.488;6.668;2023-03-15T09:06:31;6.50;99.90
22071;DHT22;11200;51.488;6.668;2023-03-15T09:08:57;6.70;99.90
22071;DHT22;11200;51.488;6.668;2023-03-15T09:11:22;6.80;99.90
22071;DHT22;11200;51.488;6.668;2023-03-15T09:13:48;7.20;99.90
22071;DHT22;11200;51.488;6.668;2023-03-15T09:16:14;7.20;99.90
22071;DHT22;11200;51.488;6.668;2023-03-15T09:18:40;7.20;99.90
22071;DHT22;11200;51.488;6.668;2023-03-15T09:21:08;7.30;99.90
22071;DHT22;11200;51.488;6.668;2023-03-15T09:23:34;7.30;99.90
22071;DHT22;11200;51.488;6.668;2023-03-15T09:25:59;7.40;99.90
22071;DHT22;11200;51.488;6.668;2023-03-15T09:28:25;7.50;99.90
22071;DHT22;11200;51.488;6.668;2023-03-15T09:30:51;7.70;99.90
22071;DHT22;11200;51.488;6.668;2023-03-15T09:33:17;7.70;99.90
22071;DHT22;11200;51.488;6.668;2023-03-15T09:35:43;7.90;99.90
22071;DHT22;11200;51.488;6.668;2023-03-15T09:38:09;8.10;99.90
22071;DHT22;11200;51.488;6.668;2023-03-15T09:40:39;8.20;99.90
22071;DHT22;11200;51.488;6.668;2023-03-15T09:45:57;8.50;99.90
22071;DHT22;11200;51.488;6.668;2023-03-15T09:51:23;8.70;99.90
22071;DHT22;11200;51.488;6.668;2023-03-15T09:56:44;8.90;99.90
22071;DHT22;11200;51.488;6.668;2023-03-15T09:59:13;9.00;99.90
22071;DHT22;11200;51.488;6.668;2023-03-15T10:01:42;9.30;99.90
22071;DHT22;11200;51.488;6.668;2023-03-15T10:04:30;9.60;99.90
22071;DHT22;11200;51.488;6.668;2023-03-15T10:07:00;10.00;99.90
22071;DHT22;11200;51.488;6.668;2023-03-15T10:09:29;10.40;99.90
22071;DHT22;11200;51.488;6.668;2023-03-15T10:12:03;10.70;99.90
22071;DHT22;11200;51.488;6.668;2023-03-15T10:17:15;11.10;99.90
22071;DHT22;11200;51.488;6.668;2023-03-15T10:19:51;11.10;99.90
22071;DHT22;11200;51.488;6.668;2023-03-15T10:22:23;11.40;99.90
22071;DHT22;11200;51.488;6.668;2023-03-15T10:25:14;11.20;99.90
22071;DHT22;11200;51.488;6.668;2023-03-15T10:27:49;11.20;99.90
22071;DHT22;11200;51.488;6.668;2023-03-15T10:30:22;11.40;99.90
22071;DHT22;11200;51.488;6.668;2023-03-15T10:33:38;11.70;99.90
22071;DHT22;11200;51.488;6.668;2023-03-15T10:35:44;12.00;99.90
22071;DHT22;11200;51.488;6.668;2023-03-15T10:38:18;12.40;99.90
22071;DHT22;11200;51.488;6.668;2023-03-15T10:40:54;12.80;99.90
22071;DHT22;11200;51.488;6.668;2023-03-15T10:43:24;13.30;99.90
22071;DHT22;11200;51.488;6.668;2023-03-15T10:45:59;13.70;99.90
22071;DHT22;11200;51.488;6.668;2023-03-15T10:48:26;14.00;99.90
22071;DHT22;11200;51.488;6.668;2023-03-15T10:50:54;14.40;99.90
22071;DHT22;11200;51.488;6.668;2023-03-15T10:53:21;14.80;99.90
22071;DHT22;11200;51.488;6.668;2023-03-15T10:56:06;15.10;99.90
22071;DHT22;11200;51.488;6.668;2023-03-15T10:58:41;15.40;99.90
22071;DHT22;11200;51.488;6.668;2023-03-15T11:01:20;15.70;99.90
22071;DHT22;11200;51.488;6.668;2023-03-15T11:04:21;15.90;99.90
22071;DHT22;11200;51.488;6.668;2023-03-15T11:06:59;16.20;99.90
22071;DHT22;11200;51.488;6.668;2023-03-15T11:09:38;16.40;99.90
22071;DHT22;11200;51.488;6.668;2023-03-15T11:12:06;16.60;99.90
22071;DHT22;11200;51.488;6.668;2023-03-15T11:14:45;16.70;99.90
22071;DHT22;11200;51.488;6.668;2023-03-15T11:17:21;16.90;99.90
22071;DHT22;11200;51.488;6.668;2023-03-15T11:19:59;17.10;99.90
22071;DHT22;11200;51.488;6.668;2023-03-15T11:22:34;17.20;99.90
22071;DHT22;11200;51.488;6.668;2023-03-15T11:25:00;17.40;99.90
22071;DHT22;11200;51.488;6.668;2023-03-15T11:27:26;17.50;99.90
22071;DHT22;11200;51.488;6.668;2023-03-15T11:29:57;17.60;99.90
22071;DHT22;11200;51.488;6.668;2023-03-15T11:32:30;17.70;99.90
22071;DHT22;11200;51.488;6.668;2023-03-15T11:35:31;17.70;99.90
22071;DHT22;11200;51.488;6.668;2023-03-15T11:37:56;17.70;99.90
22071;DHT22;11200;51.488;6.668;2023-03-15T11:40:58;17.50;99.90
22071;DHT22;11200;51.488;6.668;2023-03-15T11:46:20;17.40;99.90
22071;DHT22;11200;51.488;6.668;2023-03-15T11:51:43;17.30;99.90
22071;DHT22;11200;51.488;6.668;2023-03-15T11:54:18;17.20;99.90
22071;DHT22;11200;51.488;6.668;2023-03-15T11:56:46;17.20;99.90
22071;DHT22;11200;51.488;6.668;2023-03-15T11:59:16;17.10;99.90
22071;DHT22;11200;51.488;6.668;2023-03-15T12:01:48;17.00;99.90
22071;DHT22;11200;51.488;6.668;2023-03-15T12:06:55;16.80;99.90
22071;DHT22;11200;51.488;6.668;2023-03-15T12:14:43;16.30;99.90
22071;DHT22;11200;51.488;6.668;2023-03-15T12:19:59;16.00;99.90
22071;DHT22;11200;51.488;6.668;2023-03-15T12:22:30;15.80;99.90
22071;DHT22;11200;51.488;6.668;2023-03-15T12:25:01;15.70;99.90
22071;DHT22;11200;51.488;6.668;2023-03-15T12:27:29;15.50;99.90
22071;DHT22;11200;51.488;6.668;2023-03-15T12:30:00;15.40;99.90
22071;DHT22;11200;51.488;6.668;2023-03-15T12:32:28;15.20;99.90
22071;DHT22;11200;51.488;6.668;2023-03-15T12:35:06;15.10;99.90
22071;DHT22;11200;51.488;6.668;2023-03-15T12:37:44;15.00;99.90
22071;DHT22;11200;51.488;6.668;2023-03-15T12:58:47;14.70;99.90
22071;DHT22;11200;51.488;6.668;2023-03-15T13:01:15;14.70;99.90
22071;DHT22;11200;51.488;6.668;2023-03-15T13:03:42;14.70;99.90
22071;DHT22;11200;51.488;6.668;2023-03-15T13:06:30;14.80;99.90
22071;DHT22;11200;51.488;6.668;2023-03-15T13:11:43;14.80;99.90
22071;DHT22;11200;51.488;6.668;2023-03-15T13:17:42;14.90;99.90
22071;DHT22;11200;51.488;6.668;2023-03-15T13:20:39;14.90;99.90
22071;DHT22;11200;51.488;6.668;2023-03-15T13:23:21;15.00;99.90
22071;DHT22;11200;51.488;6.668;2023-03-15T13:29:13;15.00;99.90
22071;DHT22;11200;51.488;6.668;2023-03-15T13:31:43;15.00;99.90
22071;DHT22;11200;51.488;6.668;2023-03-15T13:34:19;15.00;99.90
22071;DHT22;11200;51.488;6.668;2023-03-15T13:36:54;15.00;99.90
22071;DHT22;11200;51.488;6.668;2023-03-15T13:39:24;15.00;99.90
22071;DHT22;11200;51.488;6.668;2023-03-15T13:42:02;15.00;99.90
22071;DHT22;11200;51.488;6.668;2023-03-15T13:44:29;15.00;99.90
22071;DHT22;11200;51.488;6.668;2023-03-15T13:46:56;14.90;99.90
22071;DHT22;11200;51.488;6.668;2023-03-15T13:49:22;14.90;99.90
22071;DHT22;11200;51.488;6.668;2023-03-15T13:51:49;14.80;99.90
22071;DHT22;11200;51.488;6.668;2023-03-15T13:54:25;14.80;99.90
22071;DHT22;11200;51.488;6.668;2023-03-15T13:56:56;14.70;99.90
22071;DHT22;11200;51.488;6.668;2023-03-15T13:59:59;14.60;99.90
22071;DHT22;11200;51.488;6.668;2023-03-15T14:02:23;14.50;99.90
22071;DHT22;11200;51.488;6.668;2023-03-15T14:04:57;14.50;99.90
22071;DHT22;11200;51.488;6.668;2023-03-15T14:07:36;14.40;99.90
22071;DHT22;11200;51.488;6.668;2023-03-15T14:12:56;14.20;99.90
22071;DHT22;11200;51.488;6.668;2023-03-15T14:18:12;14.00;99.90
22071;DHT22;11200;51.488;6.668;2023-03-15T14:20:42;13.90;99.90
22071;DHT22;11200;51.488;6.668;2023-03-15T14:23:14;13.90;99.90
22071;DHT22;11200;51.488;6.668;2023-03-15T14:25:40;13.80;99.90
22071;DHT22;11200;51.488;6.668;2023-03-15T14:28:13;13.70;99.90
22071;DHT22;11200;51.488;6.668;2023-03-15T14:30:39;13.70;99.90
22071;DHT22;11200;51.488;6.668;2023-03-15T14:33:05;13.60;99.90
22071;DHT22;11200;51.488;6.668;2023-03-15T14:38:07;13.40;99.90
22071;DHT22;11200;51.488;6.668;2023-03-15T14:40:37;13.40;99.90
22071;DHT22;11200;51.488;6.668;2023-03-15T14:43:06;13.10;99.90
22071;DHT22;11200;51.488;6.668;2023-03-15T14:45:34;13.20;99.90
22071;DHT22;11200;51.488;6.668;2023-03-15T14:48:06;13.20;99.90
22071;DHT22;11200;51.488;6.668;2023-03-15T14:50:37;13.10;99.90
22071;DHT22;11200;51.488;6.668;2023-03-15T14:53:05;13.10;99.90
22071;DHT22;11200;51.488;6.668;2023-03-15T14:55:34;13.00;99.90
22071;DHT22;11200;51.488;6.668;2023-03-15T14:58:01;12.90;99.90
22071;DHT22;11200;51.488;6.668;2023-03-15T15:00:27;12.90;99.90
22071;DHT22;11200;51.488;6.668;2023-03-15T15:02:55;12.80;99.90
22071;DHT22;11200;51.488;6.668;2023-03-15T15:05:27;12.70;99.90
22071;DHT22;11200;51.488;6.668;2023-03-15T15:08:11;12.70;99.90
22071;DHT22;11200;51.488;6.668;2023-03-15T15:10:42;12.60;99.90
22071;DHT22;11200;51.488;6.668;2023-03-15T15:13:21;12.50;99.90
22071;DHT22;11200;51.488;6.668;2023-03-15T15:15:47;12.60;99.90
22071;DHT22;11200;51.488;6.668;2023-03-15T15:18:13;12.40;99.90
22071;DHT22;11200;51.488;6.668;2023-03-15T15:20:39;12.40;99.90
22071;DHT22;11200;51.488;6.668;2023-03-15T15:23:19;12.30;99.90
22071;DHT22;11200;51.488;6.668;2023-03-15T15:25:46;12.30;99.90
22071;DHT22;11200;51.488;6.668;2023-03-15T15:28:13;12.20;99.90
22071;DHT22;11200;51.488;6.668;2023-03-15T15:30:38;12.20;99.90
22071;DHT22;11200;51.488;6.668;2023-03-15T15:33:04;12.10;99.90
22071;DHT22;11200;51.488;6.668;2023-03-15T15:35:30;12.10;99.90
22071;DHT22;11200;51.488;6.668;2023-03-15T15:37:56;12.00;99.90
22071;DHT22;11200;51.488;6.668;2023-03-15T15:40:25;11.90;99.90
22071;DHT22;11200;51.488;6.668;2023-03-15T15:42:52;11.80;99.90
22071;DHT22;11200;51.488;6.668;2023-03-15T15:45:18;11.80;99.90
22071;DHT22;11200;51.488;6.668;2023-03-15T15:47:45;11.80;99.90
22071;DHT22;11200;51.488;6.668;2023-03-15T15:50:14;11.60;99.90
22071;DHT22;11200;51.488;6.668;2023-03-15T15:52:48;11.60;99.90
22071;DHT22;11200;51.488;6.668;2023-03-15T15:55:20;11.50;99.90
22071;DHT22;11200;51.488;6.668;2023-03-15T15:57:48;11.50;99.90
22071;DHT22;11200;51.488;6.668;2023-03-15T16:00:22;11.40;99.90
22071;DHT22;11200;51.488;6.668;2023-03-15T16:02:49;11.40;99.90
22071;DHT22;11200;51.488;6.668;2023-03-15T16:05:18;11.30;99.90
22071;DHT22;11200;51.488;6.668;2023-03-15T16:07:44;11.30;99.90
22071;DHT22;11200;51.488;6.668;2023-03-15T16:10:21;11.20;99.90
22071;DHT22;11200;51.488;6.668;2023-03-15T16:12:49;11.20;99.90
22071;DHT22;11200;51.488;6.668;2023-03-15T16:15:16;11.10;99.90
22071;DHT22;11200;51.488;6.668;2023-03-15T16:17:43;11.10;99.90
22071;DHT22;11200;51.488;6.668;2023-03-15T16:20:10;11.00;99.90
22071;DHT22;11200;51.488;6.668;2023-03-15T16:22:37;10.90;99.90
22071;DHT22;11200;51.488;6.668;2023-03-15T16:25:10;10.90;99.90
22071;DHT22;11200;51.488;6.668;2023-03-15T16:27:36;10.80;99.90
22071;DHT22;11200;51.488;6.668;2023-03-15T16:30:02;10.80;99.90
22071;DHT22;11200;51.488;6.668;2023-03-15T16:32:29;10.70;99.90
22071;DHT22;11200;51.488;6.668;2023-03-15T16:34:55;10.70;99.90
22071;DHT22;11200;51.488;6.668;2023-03-15T16:37:27;10.70;99.90
22071;DHT22;11200;51.488;6.668;2023-03-15T16:39:54;10.60;99.90
22071;DHT22;11200;51.488;6.668;2023-03-15T16:42:23;10.50;99.90
22071;DHT22;11200;51.488;6.668;2023-03-15T16:44:53;10.50;99.90
22071;DHT22;11200;51.488;6.668;2023-03-15T16:49:46;10.30;99.90
22071;DHT22;11200;51.488;6.668;2023-03-15T16:52:13;9.90;99.90
22071;DHT22;11200;51.488;6.668;2023-03-15T16:54:40;10.20;99.90
22071;DHT22;11200;51.488;6.668;2023-03-15T16:57:19;10.20;99.90
22071;DHT22;11200;51.488;6.668;2023-03-15T16:59:46;10.10;99.90
22071;DHT22;11200;51.488;6.668;2023-03-15T17:02:23;10.00;99.90
22071;DHT22;11200;51.488;6.668;2023-03-15T17:04:49;9.90;99.90
22071;DHT22;11200;51.488;6.668;2023-03-15T17:07:19;9.90;99.90
22071;DHT22;11200;51.488;6.668;2023-03-15T17:09:47;9.80;99.90
22071;DHT22;11200;51.488;6.668;2023-03-15T17:12:25;9.80;99.90
22071;DHT22;11200;51.488;6.668;2023-03-15T17:14:53;9.70;99.90
22071;DHT22;11200;51.488;6.668;2023-03-15T17:17:19;9.70;99.90
22071;DHT22;11200;51.488;6.668;2023-03-15T17:19:45;9.40;99.90
22071;DHT22;11200;51.488;6.668;2023-03-15T17:22:13;9.50;99.90
22071;DHT22;11200;51.488;6.668;2023-03-15T17:24:39;9.50;99.90
22071;DHT22;11200;51.488;6.668;2023-03-15T17:27:17;9.30;99.90
22071;DHT22;11200;51.488;6.668;2023-03-15T17:29:44;9.30;99.90
22071;DHT22;11200;51.488;6.668;2023-03-15T17:32:10;9.20;99.90
22071;DHT22;11200;51.488;6.668;2023-03-15T17:34:37;9.20;99.90
22071;DHT22;11200;51.488;6.668;2023-03-15T17:37:03;9.20;99.90
22071;DHT22;11200;51.488;6.668;2023-03-15T17:39:28;9.10;99.90
22071;DHT22;11200;51.488;6.668;2023-03-15T17:41:54;9.00;99.90
22071;DHT22;11200;51.488;6.668;2023-03-15T17:44:19;8.90;99.90
22071;DHT22;11200;51.488;6.668;2023-03-15T17:46:45;8.90;99.90
22071;DHT22;11200;51.488;6.668;2023-03-15T17:49:10;8.70;99.90
22071;DHT22;11200;51.488;6.668;2023-03-15T17:51:38;8.70;99.90
22071;DHT22;11200;51.488;6.668;2023-03-15T17:54:11;8.80;99.90
22071;DHT22;11200;51.488;6.668;2023-03-15T17:56:37;8.60;99.90
22071;DHT22;11200;51.488;6.668;2023-03-15T17:59:03;8.60;99.90
22071;DHT22;11200;51.488;6.668;2023-03-15T18:01:29;8.50;99.90
22071;DHT22;11200;51.488;6.668;2023-03-15T18:03:56;8.40;99.90
22071;DHT22;11200;51.488;6.668;2023-03-15T18:06:22;8.30;99.90
22071;DHT22;11200;51.488;6.668;2023-03-15T18:08:49;8.30;99.90
22071;DHT22;11200;51.488;6.668;2023-03-15T18:13:43;8.10;99.90
22071;DHT22;11200;51.488;6.668;2023-03-15T18:16:11;8.10;99.90
22071;DHT22;11200;51.488;6.668;2023-03-15T18:18:39;8.00;99.90
22071;DHT22;11200;51.488;6.668;2023-03-15T18:21:14;7.90;99.90
22071;DHT22;11200;51.488;6.668;2023-03-15T18:23:41;7.90;99.90
22071;DHT22;11200;51.488;6.668;2023-03-15T18:26:08;7.80;99.90
22071;DHT22;11200;51.488;6.668;2023-03-15T18:28:34;8.00;99.90
22071;DHT22;11200;51.488;6.668;2023-03-15T18:31:00;7.70;99.90
22071;DHT22;11200;51.488;6.668;2023-03-15T18:33:26;7.70;99.90
22071;DHT22;11200;51.488;6.668;2023-03-15T18:35:51;7.60;99.90
22071;DHT22;11200;51.488;6.668;2023-03-15T18:38:18;7.50;99.90
22071;DHT22;11200;51.488;6.668;2023-03-15T18:40:43;7.50;99.90
22071;DHT22;11200;51.488;6.668;2023-03-15T18:43:12;7.40;99.90
22071;DHT22;11200;51.488;6.668;2023-03-15T18:45:37;7.30;99.90
22071;DHT22;11200;51.488;6.668;2023-03-15T18:48:03;7.30;99.90
22071;DHT22;11200;51.488;6.668;2023-03-15T18:50:29;7.20;99.90
22071;DHT22;11200;51.488;6.668;2023-03-15T18:52:55;7.10;99.90
22071;DHT22;11200;51.488;6.668;2023-03-15T18:55:21;7.10;99.90
22071;DHT22;11200;51.488;6.668;2023-03-15T18:57:48;7.10;99.90
22071;DHT22;11200;51.488;6.668;2023-03-15T19:00:17;7.00;99.90
22071;DHT22;11200;51.488;6.668;2023-03-15T19:02:48;6.90;99.90
22071;DHT22;11200;51.488;6.668;2023-03-15T19:05:15;7.10;99.90
22071;DHT22;11200;51.488;6.668;2023-03-15T19:07:41;6.80;99.90
22071;DHT22;11200;51.488;6.668;2023-03-15T19:10:10;6.80;99.90
22071;DHT22;11200;51.488;6.668;2023-03-15T19:12:38;6.70;99.90
22071;DHT22;11200;51.488;6.668;2023-03-15T19:15:05;6.70;99.90
22071;DHT22;11200;51.488;6.668;2023-03-15T19:17:32;6.70;99.90
22071;DHT22;11200;51.488;6.668;2023-03-15T19:19:58;6.60;99.90
22071;DHT22;11200;51.488;6.668;2023-03-15T19:22:23;6.50;99.90
22071;DHT22;11200;51.488;6.668;2023-03-15T19:24:50;6.50;99.90
22071;DHT22;11200;51.488;6.668;2023-03-15T19:27:16;6.50;99.90
22071;DHT22;11200;51.488;6.668;2023-03-15T19:29:42;6.40;99.90
22071;DHT22;11200;51.488;6.668;2023-03-15T19:32:08;6.40;99.90
22071;DHT22;11200;51.488;6.668;2023-03-15T19:34:33;6.30;99.90
22071;DHT22;11200;51.488;6.668;2023-03-15T19:36:59;6.40;99.90
22071;DHT22;11200;51.488;6.668;2023-03-15T19:39:25;6.30;99.90
22071;DHT22;11200;51.488;6.668;2023-03-15T19:41:51;6.20;99.90
22071;DHT22;11200;51.488;6.668;2023-03-15T19:44:20;6.60;99.90
22071;DHT22;11200;51.488;6.668;2023-03-15T19:46:47;6.10;99.90
22071;DHT22;11200;51.488;6.668;2023-03-15T19:49:12;6.20;99.90
22071;DHT22;11200;51.488;6.668;2023-03-15T19:51:38;6.10;99.90
22071;DHT22;11200;51.488;6.668;2023-03-15T19:54:04;6.60;99.90
22071;DHT22;11200;51.488;6.668;2023-03-15T19:56:30;6.00;99.90
22071;DHT22;11200;51.488;6.668;2023-03-15T19:58:56;6.20;99.90
22071;DHT22;11200;51.488;6.668;2023-03-15T20:01:22;6.00;99.90
22071;DHT22;11200;51.488;6.668;2023-03-15T20:03:47;5.90;99.90
22071;DHT22;11200;51.488;6.668;2023-03-15T20:06:13;5.90;99.90
22071;DHT22;11200;51.488;6.668;2023-03-15T20:08:40;5.90;99.90
22071;DHT22;11200;51.488;6.668;2023-03-15T20:11:06;5.80;99.90
22071;DHT22;11200;51.488;6.668;2023-03-15T20:13:36;6.30;99.90
22071;DHT22;11200;51.488;6.668;2023-03-15T20:16:03;5.80;99.90
22071;DHT22;11200;51.488;6.668;2023-03-15T20:18:29;5.70;99.90
22071;DHT22;11200;51.488;6.668;2023-03-15T20:20:56;5.80;99.90
22071;DHT22;11200;51.488;6.668;2023-03-15T20:23:22;5.70;99.90
22071;DHT22;11200;51.488;6.668;2023-03-15T20:25:48;5.60;99.90
22071;DHT22;11200;51.488;6.668;2023-03-15T20:28:15;5.70;99.90
22071;DHT22;11200;51.488;6.668;2023-03-15T20:30:42;5.60;99.90
22071;DHT22;11200;51.488;6.668;2023-03-15T20:33:08;5.60;99.90
22071;DHT22;11200;51.488;6.668;2023-03-15T20:35:35;5.50;99.90
22071;DHT22;11200;51.488;6.668;2023-03-15T20:38:01;5.50;99.90
22071;DHT22;11200;51.488;6.668;2023-03-15T20:40:36;5.50;99.90
22071;DHT22;11200;51.488;6.668;2023-03-15T20:43:03;5.50;99.90
22071;DHT22;11200;51.488;6.668;2023-03-15T20:45:31;5.70;99.90
22071;DHT22;11200;51.488;6.668;2023-03-15T20:47:58;5.60;99.90
22071;DHT22;11200;51.488;6.668;2023-03-15T20:50:23;5.30;99.90
22071;DHT22;11200;51.488;6.668;2023-03-15T20:52:49;5.30;99.90
22071;DHT22;11200;51.488;6.668;2023-03-15T20:55:15;5.30;99.90
22071;DHT22;11200;51.488;6.668;2023-03-15T20:57:41;5.20;99.90
22071;DHT22;11200;51.488;6.668;2023-03-15T21:00:11;5.20;99.90
22071;DHT22;11200;51.488;6.668;2023-03-15T21:02:40;5.20;99.90
22071;DHT22;11200;51.488;6.668;2023-03-15T21:05:09;5.20;99.90
22071;DHT22;11200;51.488;6.668;2023-03-15T21:07:38;5.10;99.90
22071;DHT22;11200;51.488;6.668;2023-03-15T21:10:04;5.70;99.90
22071;DHT22;11200;51.488;6.668;2023-03-15T21:12:30;5.10;99.90
22071;DHT22;11200;51.488;6.668;2023-03-15T21:14:55;5.10;99.90
22071;DHT22;11200;51.488;6.668;2023-03-15T21:17:21;5.50;99.90
22071;DHT22;11200;51.488;6.668;2023-03-15T21:19:46;5.30;99.90
22071;DHT22;11200;51.488;6.668;2023-03-15T21:22:12;5.20;99.90
22071;DHT22;11200;51.488;6.668;2023-03-15T21:24:38;5.30;99.90
22071;DHT22;11200;51.488;6.668;2023-03-15T21:27:03;5.10;99.90
22071;DHT22;11200;51.488;6.668;2023-03-15T21:29:33;5.10;99.90
22071;DHT22;11200;51.488;6.668;2023-03-15T21:31:59;5.00;99.90
22071;DHT22;11200;51.488;6.668;2023-03-15T21:34:24;5.00;99.90
22071;DHT22;11200;51.488;6.668;2023-03-15T21:36:50;5.10;99.90
22071;DHT22;11200;51.488;6.668;2023-03-15T21:39:16;5.00;99.90
22071;DHT22;11200;51.488;6.668;2023-03-15T21:41:42;5.80;99.90
22071;DHT22;11200;51.488;6.668;2023-03-15T21:44:08;4.90;99.90
22071;DHT22;11200;51.488;6.668;2023-03-15T21:46:33;4.90;99.90